sensor_id;sensor_type;location;lat;lon;timestamp;pressure;altitude;pressure_sealevel;temperature;humidity
76762;BME280;65705;51.032;13.790;2023-04-15T00:00:42;99193.78;;;7.61;88.51
76762;BME280;65705;51.032;13.790;2023-04-15T00:03:08;99199.50;;;7.64;88.19
76762;BME280;65705;51.032;13.790;2023-04-15T00:05:33;99201.97;;;7.74;87.85
76762;BME280;65705;51.032;13.790;2023-04-15T00:07:59;99197.53;;;7.66;88.06
76762;BME280;65705;51.032;13.790;2023-04-15T00:10:26;99186.94;;;7.60;88.01
76762;BME280;65705;51.032;13.790;2023-04-15T00:12:52;99192.97;;;7.60;88.36
76762;BME280;65705;51.032;13.790;2023-04-15T00:15:18;99192.63;;;7.55;88.70
76762;BME280;65705;51.032;13.790;2023-04-15T00:17:44;99191.19;;;7.53;88.81
76762;BME280;65705;51.032;13.790;2023-04-15T00:20:10;99195.25;;;7.63;88.01
76762;BME280;65705;51.032;13.790;2023-04-15T00:22:36;99185.47;;;7.65;87.74
76762;BME280;65705;51.032;13.790;2023-04-15T00:25:02;99181.38;;;7.63;87.95
76762;BME280;65705;51.032;13.790;2023-04-15T00:27:28;99184.34;;;7.60;88.32
76762;BME280;65705;51.032;13.790;2023-04-15T00:29:55;99173.06;;;7.59;88.19
76762;BME280;65705;51.032;13.790;2023-04-15T00:32:21;99174.53;;;7.54;88.22
76762;BME280;65705;51.032;13.790;2023-04-15T00:34:47;99175.50;;;7.61;87.97
76762;BME280;65705;51.032;13.790;2023-04-15T00:37:14;99171.25;;;7.68;87.51
76762;BME280;65705;51.032;13.790;2023-04-15T00:39:40;99178.31;;;7.67;87.64
76762;BME280;65705;51.032;13.790;2023-04-15T00:42:06;99171.59;;;7.65;87.43
76762;BME280;65705;51.032;13.790;2023-04-15T00:44:32;99167.69;;;7.69;87.18
76762;BME280;65705;51.032;13.790;2023-04-15T00:46:59;99172.25;;;7.67;87.54
76762;BME280;65705;51.032;13.790;2023-04-15T00:49:25;99168.34;;;7.71;88.23
76762;BME280;65705;51.032;13.790;2023-04-15T00:51:53;99167.19;;;7.73;87.68
76762;BME280;65705;51.032;13.790;2023-04-15T00:54:19;99172.25;;;7.75;87.22
76762;BME280;65705;51.032;13.790;2023-04-15T00:56:46;99174.22;;;7.81;86.62
76762;BME280;65705;51.032;13.790;2023-04-15T00:59:13;99174.19;;;7.73;86.88
76762;BME280;65705;51.032;13.790;2023-04-15T01:01:40;99160.16;;;7.66;87.00
76762;BME280;65705;51.032;13.790;2023-04-15T01:04:06;99168.00;;;7.66;87.16
76762;BME280;65705;51.032;13.790;2023-04-15T01:06:34;99155.78;;;7.74;87.00
76762;BME280;65705;51.032;13.790;2023-04-15T01:09:00;99151.16;;;7.76;86.56
76762;BME280;65705;51.032;13.790;2023-04-15T01:11:26;99156.59;;;7.67;87.07
76762;BME280;65705;51.032;13.790;2023-04-15T01:13:54;99165.72;;;7.63;87.51
76762;BME280;65705;51.032;13.790;2023-04-15T01:16:21;99159.66;;;7.62;87.10
76762;BME280;65705;51.032;13.790;2023-04-15T01:18:47;99151.19;;;7.60;87.54
76762;BME280;65705;51.032;13.790;2023-04-15T01:21:13;99144.00;;;7.62;87.49
76762;BME280;65705;51.032;13.790;2023-04-15T01:23:39;99144.34;;;7.59;87.71
76762;BME280;65705;51.032;13.790;2023-04-15T01:26:06;99155.59;;;7.60;87.82
76762;BME280;65705;51.032;13.790;2023-04-15T01:28:36;99148.25;;;7.71;87.52
76762;BME280;65705;51.032;13.790;2023-04-15T01:31:12;99139.28;;;7.74;87.23
76762;BME280;65705;51.032;13.790;2023-04-15T01:33:39;99141.56;;;7.69;87.40
76762;BME280;65705;51.032;13.790;2023-04-15T01:36:24;99133.56;;;7.62;87.62
76762;BME280;65705;51.032;13.790;2023-04-15T01:38:52;99137.97;;;7.70;87.44
76762;BME280;65705;51.032;13.790;2023-04-15T01:41:24;99138.28;;;7.75;87.43
76762;BME280;65705;51.032;13.790;2023-04-15T01:43:52;99137.63;;;7.73;87.68
76762;BME280;65705;51.032;13.790;2023-04-15T01:46:20;99141.41;;;7.70;87.76
76762;BME280;65705;51.032;13.790;2023-04-15T01:48:47;99137.63;;;7.73;87.28
76762;BME280;65705;51.032;13.790;2023-04-15T01:51:14;99141.56;;;7.69;87.03
76762;BME280;65705;51.032;13.790;2023-04-15T01:53:42;99140.41;;;7.71;87.03
76762;BME280;65705;51.032;13.790;2023-04-15T01:56:09;99132.09;;;7.68;87.86
76762;BME280;65705;51.032;13.790;2023-04-15T01:58:36;99126.88;;;7.68;87.68
76762;BME280;65705;51.032;13.790;2023-04-15T02:01:03;99127.19;;;7.73;87.92
76762;BME280;65705;51.032;13.790;2023-04-15T02:03:32;99130.31;;;7.68;87.41
76762;BME280;65705;51.032;13.790;2023-04-15T02:05:59;99125.25;;;7.67;88.07
76762;BME280;65705;51.032;13.790;2023-04-15T02:08:28;99124.09;;;7.69;87.94
76762;BME280;65705;51.032;13.790;2023-04-15T02:10:55;99116.91;;;7.71;87.46
76762;BME280;65705;51.032;13.790;2023-04-15T02:13:22;99116.13;;;7.71;87.64
76762;BME280;65705;51.032;13.790;2023-04-15T02:15:50;99114.78;;;7.75;87.66
76762;BME280;65705;51.032;13.790;2023-04-15T02:18:19;99118.84;;;7.85;87.65
76762;BME280;65705;51.032;13.790;2023-04-15T02:20:47;99113.78;;;7.84;86.92
76762;BME280;65705;51.032;13.790;2023-04-15T02:23:14;99112.66;;;7.78;86.95
76762;BME280;65705;51.032;13.790;2023-04-15T02:25:44;99106.59;;;7.86;87.28
76762;BME280;65705;51.032;13.790;2023-04-15T02:28:11;99113.47;;;7.79;87.32
76762;BME280;65705;51.032;13.790;2023-04-15T02:30:38;99105.63;;;7.79;87.19
76762;BME280;65705;51.032;13.790;2023-04-15T02:33:06;99110.69;;;7.80;87.42
76762;BME280;65705;51.032;13.790;2023-04-15T02:35:33;99103.84;;;7.79;87.66
76762;BME280;65705;51.032;13.790;2023-04-15T02:38:02;99103.03;;;7.79;88.05
76762;BME280;65705;51.032;13.790;2023-04-15T02:40:29;99108.75;;;7.82;87.43
76762;BME280;65705;51.032;13.790;2023-04-15T02:42:55;99107.13;;;7.73;87.29
76762;BME280;65705;51.032;13.790;2023-04-15T02:45:22;99116.13;;;7.71;88.11
76762;BME280;65705;51.032;13.790;2023-04-15T02:47:53;99112.16;;;7.75;88.12
76762;BME280;65705;51.032;13.790;2023-04-15T02:50:20;99124.44;;;7.66;87.72
76762;BME280;65705;51.032;13.790;2023-04-15T02:52:49;99123.44;;;7.75;87.36
76762;BME280;65705;51.032;13.790;2023-04-15T02:55:16;99117.91;;;7.70;87.75
76762;BME280;65705;51.032;13.790;2023-04-15T02:57:44;99108.28;;;7.71;88.16
76762;BME280;65705;51.032;13.790;2023-04-15T03:00:11;99104.19;;;7.68;88.22
76762;BME280;65705;51.032;13.790;2023-04-15T03:02:44;99114.94;;;7.73;88.17
76762;BME280;65705;51.032;13.790;2023-04-15T03:05:13;99111.19;;;7.68;88.11
76762;BME280;65705;51.032;13.790;2023-04-15T03:07:44;99112.69;;;7.54;88.52
76762;BME280;65705;51.032;13.790;2023-04-15T03:10:11;99104.69;;;7.56;88.66
76762;BME280;65705;51.032;13.790;2023-04-15T03:12:38;99099.63;;;7.62;88.60
76762;BME280;65705;51.032;13.790;2023-04-15T03:15:07;99104.03;;;7.62;88.66
76762;BME280;65705;51.032;13.790;2023-04-15T03:17:38;99101.91;;;7.57;88.64
76762;BME280;65705;51.032;13.790;2023-04-15T03:20:06;99102.06;;;7.64;88.73
76762;BME280;65705;51.032;13.790;2023-04-15T03:22:34;99095.34;;;7.69;88.68
76762;BME280;65705;51.032;13.790;2023-04-15T03:25:02;99099.78;;;7.69;87.97
76762;BME280;65705;51.032;13.790;2023-04-15T03:27:29;99090.97;;;7.70;88.47
76762;BME280;65705;51.032;13.790;2023-04-15T03:30:00;99088.00;;;7.73;88.62
76762;BME280;65705;51.032;13.790;2023-04-15T03:32:30;99080.69;;;7.68;88.33
76762;BME280;65705;51.032;13.790;2023-04-15T03:34:58;99084.28;;;7.67;88.78
76762;BME280;65705;51.032;13.790;2023-04-15T03:37:25;99091.28;;;7.75;88.38
76762;BME280;65705;51.032;13.790;2023-04-15T03:39:51;99079.56;;;7.71;88.10
76762;BME280;65705;51.032;13.790;2023-04-15T03:42:18;99081.34;;;7.62;88.33
76762;BME280;65705;51.032;13.790;2023-04-15T03:44:46;99081.16;;;7.72;88.20
76762;BME280;65705;51.032;13.790;2023-04-15T03:47:12;99079.34;;;7.80;88.17
76762;BME280;65705;51.032;13.790;2023-04-15T03:49:39;99075.31;;;7.62;88.09
76762;BME280;65705;51.032;13.790;2023-04-15T03:52:07;99081.84;;;7.58;88.54
76762;BME280;65705;51.032;13.790;2023-04-15T03:54:34;99078.56;;;7.64;88.21
76762;BME280;65705;51.032;13.790;2023-04-15T03:57:00;99080.22;;;7.65;88.23
76762;BME280;65705;51.032;13.790;2023-04-15T03:59:28;99073.34;;;7.64;88.31
76762;BME280;65705;51.032;13.790;2023-04-15T04:01:55;99068.47;;;7.53;88.85
76762;BME280;65705;51.032;13.790;2023-04-15T04:04:22;99069.44;;;7.52;89.15
76762;BME280;65705;51.032;13.790;2023-04-15T04:06:49;99082.16;;;7.63;88.71
76762;BME280;65705;51.032;13.790;2023-04-15T04:09:16;99079.72;;;7.61;88.70
76762;BME280;65705;51.032;13.790;2023-04-15T04:11:43;99078.91;;;7.69;88.21
76762;BME280;65705;51.032;13.790;2023-04-15T04:14:11;99072.72;;;7.62;88.85
76762;BME280;65705;51.032;13.790;2023-04-15T04:16:38;99076.91;;;7.79;88.48
76762;BME280;65705;51.032;13.790;2023-04-15T04:19:05;99075.81;;;7.65;88.35
76762;BME280;65705;51.032;13.790;2023-04-15T04:21:32;99080.84;;;7.67;88.61
76762;BME280;65705;51.032;13.790;2023-04-15T04:23:59;99074.81;;;7.74;88.74
76762;BME280;65705;51.032;13.790;2023-04-15T04:26:26;99083.13;;;7.78;88.39
76762;BME280;65705;51.032;13.790;2023-04-15T04:28:53;99078.06;;;7.68;88.85
76762;BME280;65705;51.032;13.790;2023-04-15T04:31:20;99079.69;;;7.77;88.40
76762;BME280;65705;51.032;13.790;2023-04-15T04:33:47;99088.19;;;7.79;88.91
76762;BME280;65705;51.032;13.790;2023-04-15T04:36:14;99088.16;;;7.87;88.33
76762;BME280;65705;51.032;13.790;2023-04-15T04:38:41;99083.41;;;7.91;88.09
76762;BME280;65705;51.032;13.790;2023-04-15T04:41:08;99089.47;;;7.91;88.06
76762;BME280;65705;51.032;13.790;2023-04-15T04:43:35;99097.78;;;7.95;88.20
76762;BME280;65705;51.032;13.790;2023-04-15T04:46:01;99099.06;;;7.99;87.77
76762;BME280;65705;51.032;13.790;2023-04-15T04:48:28;99106.25;;;7.97;87.97
76762;BME280;65705;51.032;13.790;2023-04-15T04:50:55;99102.50;;;7.99;88.50
76762;BME280;65705;51.032;13.790;2023-04-15T04:53:22;99104.91;;;8.09;88.41
76762;BME280;65705;51.032;13.790;2023-04-15T04:55:49;99104.09;;;8.16;88.08
76762;BME280;65705;51.032;13.790;2023-04-15T04:58:16;99109.63;;;8.21;87.66
76762;BME280;65705;51.032;13.790;2023-04-15T05:00:43;99103.59;;;8.13;87.39
76762;BME280;65705;51.032;13.790;2023-04-15T05:03:10;99108.81;;;8.21;87.63
76762;BME280;65705;51.032;13.790;2023-04-15T05:05:37;99113.41;;;8.19;87.58
76762;BME280;65705;51.032;13.790;2023-04-15T05:08:06;99113.41;;;8.19;87.31
76762;BME280;65705;51.032;13.790;2023-04-15T05:10:33;99110.44;;;8.22;87.68
76762;BME280;65705;51.032;13.790;2023-04-15T05:13:00;99122.22;;;8.26;87.53
76762;BME280;65705;51.032;13.790;2023-04-15T05:15:27;99116.31;;;8.32;87.44
76762;BME280;65705;51.032;13.790;2023-04-15T05:17:54;99116.78;;;8.35;87.45
76762;BME280;65705;51.032;13.790;2023-04-15T05:20:21;99116.28;;;8.40;87.43
76762;BME280;65705;51.032;13.790;2023-04-15T05:22:48;99120.53;;;8.41;87.36
76762;BME280;65705;51.032;13.790;2023-04-15T05:25:15;99119.88;;;8.39;87.43
76762;BME280;65705;51.032;13.790;2023-04-15T05:27:42;99111.88;;;8.40;87.55
76762;BME280;65705;51.032;13.790;2023-04-15T05:30:09;99117.75;;;8.42;87.48
76762;BME280;65705;51.032;13.790;2023-04-15T05:32:37;99113.16;;;8.44;87.54
76762;BME280;65705;51.032;13.790;2023-04-15T05:35:04;99117.59;;;8.44;87.47
76762;BME280;65705;51.032;13.790;2023-04-15T05:37:31;99113.63;;;8.48;87.50
76762;BME280;65705;51.032;13.790;2023-04-15T05:39:58;99115.94;;;8.51;87.44
76762;BME280;65705;51.032;13.790;2023-04-15T05:42:25;99118.19;;;8.62;87.21
76762;BME280;65705;51.032;13.790;2023-04-15T05:44:51;99123.22;;;8.64;86.77
76762;BME280;65705;51.032;13.790;2023-04-15T05:47:18;99133.69;;;8.64;86.79
76762;BME280;65705;51.032;13.790;2023-04-15T05:49:45;99141.06;;;8.60;86.43
76762;BME280;65705;51.032;13.790;2023-04-15T05:52:12;99146.94;;;8.62;86.66
76762;BME280;65705;51.032;13.790;2023-04-15T05:54:39;99147.09;;;8.61;86.54
76762;BME280;65705;51.032;13.790;2023-04-15T05:57:06;99153.78;;;8.63;86.49
76762;BME280;65705;51.032;13.790;2023-04-15T05:59:33;99145.94;;;8.63;86.66
76762;BME280;65705;51.032;13.790;2023-04-15T06:02:00;99150.50;;;8.69;86.34
76762;BME280;65705;51.032;13.790;2023-04-15T06:04:27;99151.94;;;8.72;86.39
76762;BME280;65705;51.032;13.790;2023-04-15T06:06:54;99161.63;;;8.71;86.05
76762;BME280;65705;51.032;13.790;2023-04-15T06:09:21;99152.47;;;8.67;85.89
76762;BME280;65705;51.032;13.790;2023-04-15T06:11:48;99153.13;;;8.69;86.05
76762;BME280;65705;51.032;13.790;2023-04-15T06:14:15;99153.13;;;8.69;85.90
76762;BME280;65705;51.032;13.790;2023-04-15T06:16:42;99159.97;;;8.70;86.09
76762;BME280;65705;51.032;13.790;2023-04-15T06:19:09;99158.47;;;8.76;85.83
76762;BME280;65705;51.032;13.790;2023-04-15T06:21:36;99162.22;;;8.73;85.55
76762;BME280;65705;51.032;13.790;2023-04-15T06:24:04;99163.88;;;8.74;85.70
76762;BME280;65705;51.032;13.790;2023-04-15T06:26:31;99164.06;;;8.73;85.85
76762;BME280;65705;51.032;13.790;2023-04-15T06:28:58;99164.38;;;8.70;85.85
76762;BME280;65705;51.032;13.790;2023-04-15T06:31:25;99166.03;;;8.71;86.08
76762;BME280;65705;51.032;13.790;2023-04-15T06:33:52;99167.47;;;8.73;85.89
76762;BME280;65705;51.032;13.790;2023-04-15T06:36:19;99167.16;;;8.76;85.72
76762;BME280;65705;51.032;13.790;2023-04-15T06:38:46;99167.63;;;8.80;85.76
76762;BME280;65705;51.032;13.790;2023-04-15T06:41:15;99172.69;;;8.81;85.87
76762;BME280;65705;51.032;13.790;2023-04-15T06:43:43;99179.03;;;8.87;85.82
76762;BME280;65705;51.032;13.790;2023-04-15T06:46:10;99179.69;;;8.89;85.91
76762;BME280;65705;51.032;13.790;2023-04-15T06:48:37;99179.22;;;8.85;85.77
76762;BME280;65705;51.032;13.790;2023-04-15T06:51:04;99180.81;;;8.94;85.87
76762;BME280;65705;51.032;13.790;2023-04-15T06:53:31;99174.69;;;9.02;85.66
76762;BME280;65705;51.032;13.790;2023-04-15T06:55:58;99183.00;;;9.05;85.48
76762;BME280;65705;51.032;13.790;2023-04-15T06:58:26;99178.25;;;9.09;85.35
76762;BME280;65705;51.032;13.790;2023-04-15T07:00:53;99180.72;;;9.10;85.17
76762;BME280;65705;51.032;13.790;2023-04-15T07:03:20;99196.06;;;9.13;84.66
76762;BME280;65705;51.032;13.790;2023-04-15T07:05:46;99192.91;;;9.18;84.29
76762;BME280;65705;51.032;13.790;2023-04-15T07:08:14;99198.00;;;9.19;84.08
76762;BME280;65705;51.032;13.790;2023-04-15T07:10:41;99198.81;;;9.20;84.46
76762;BME280;65705;51.032;13.790;2023-04-15T07:13:08;99196.66;;;9.23;84.76
76762;BME280;65705;51.032;13.790;2023-04-15T07:15:35;99200.75;;;9.26;84.08
76762;BME280;65705;51.032;13.790;2023-04-15T07:18:02;99206.16;;;9.24;84.09
76762;BME280;65705;51.032;13.790;2023-04-15T07:20:29;99214.34;;;9.21;84.35
76762;BME280;65705;51.032;13.790;2023-04-15T07:22:56;99213.06;;;9.17;84.90
76762;BME280;65705;51.032;13.790;2023-04-15T07:25:23;99214.69;;;9.18;85.14
76762;BME280;65705;51.032;13.790;2023-04-15T07:27:52;99223.78;;;9.30;84.92
76762;BME280;65705;51.032;13.790;2023-04-15T07:30:19;99215.59;;;9.33;83.97
76762;BME280;65705;51.032;13.790;2023-04-15T07:32:46;99223.09;;;9.36;83.46
76762;BME280;65705;51.032;13.790;2023-04-15T07:35:13;99211.22;;;9.48;83.42
76762;BME280;65705;51.032;13.790;2023-04-15T07:37:40;99221.56;;;9.50;82.87
76762;BME280;65705;51.032;13.790;2023-04-15T07:40:09;99212.16;;;9.55;82.70
76762;BME280;65705;51.032;13.790;2023-04-15T07:42:36;99215.72;;;9.63;82.52
76762;BME280;65705;51.032;13.790;2023-04-15T07:45:03;99222.13;;;9.60;82.15
76762;BME280;65705;51.032;13.790;2023-04-15T07:47:30;99226.69;;;9.66;82.75
76762;BME280;65705;51.032;13.790;2023-04-15T07:49:57;99222.38;;;9.73;82.25
76762;BME280;65705;51.032;13.790;2023-04-15T07:52:24;99218.72;;;9.82;81.31
76762;BME280;65705;51.032;13.790;2023-04-15T07:54:51;99223.19;;;9.96;81.77
76762;BME280;65705;51.032;13.790;2023-04-15T07:57:18;99226.84;;;10.10;81.63
76762;BME280;65705;51.032;13.790;2023-04-15T07:59:45;99234.38;;;10.27;80.95
76762;BME280;65705;51.032;13.790;2023-04-15T08:02:12;99242.56;;;10.32;79.28
76762;BME280;65705;51.032;13.790;2023-04-15T08:04:39;99243.75;;;10.44;79.09
76762;BME280;65705;51.032;13.790;2023-04-15T08:07:06;99254.06;;;10.46;78.33
76762;BME280;65705;51.032;13.790;2023-04-15T08:09:33;99250.97;;;10.42;78.57
76762;BME280;65705;51.032;13.790;2023-04-15T08:12:01;99256.84;;;10.44;78.27
76762;BME280;65705;51.032;13.790;2023-04-15T08:14:28;99262.44;;;10.41;78.49
76762;BME280;65705;51.032;13.790;2023-04-15T08:16:55;99254.03;;;10.31;78.40
76762;BME280;65705;51.032;13.790;2023-04-15T08:19:22;99259.34;;;10.38;77.54
76762;BME280;65705;51.032;13.790;2023-04-15T08:21:50;99262.09;;;10.44;77.84
76762;BME280;65705;51.032;13.790;2023-04-15T08:24:17;99257.31;;;10.48;78.01
76762;BME280;65705;51.032;13.790;2023-04-15T08:26:44;99266.34;;;10.45;78.95
76762;BME280;65705;51.032;13.790;2023-04-15T08:29:12;99264.09;;;10.42;79.26
76762;BME280;65705;51.032;13.790;2023-04-15T08:31:39;99263.19;;;10.35;79.36
76762;BME280;65705;51.032;13.790;2023-04-15T08:34:06;99262.63;;;10.40;79.92
76762;BME280;65705;51.032;13.790;2023-04-15T08:36:33;99268.00;;;10.46;79.14
76762;BME280;65705;51.032;13.790;2023-04-15T08:39:00;99267.81;;;10.48;79.24
76762;BME280;65705;51.032;13.790;2023-04-15T08:41:38;99270.97;;;10.58;78.40
76762;BME280;65705;51.032;13.790;2023-04-15T08:44:06;99271.78;;;10.44;78.63
76762;BME280;65705;51.032;13.790;2023-04-15T08:46:33;99269.41;;;10.49;78.62
76762;BME280;65705;51.032;13.790;2023-04-15T08:49:04;99277.66;;;10.46;79.31
76762;BME280;65705;51.032;13.790;2023-04-15T08:51:31;99274.13;;;10.39;78.99
76762;BME280;65705;51.032;13.790;2023-04-15T08:53:59;99279.72;;;10.36;77.72
76762;BME280;65705;51.032;13.790;2023-04-15T08:56:29;99283.19;;;10.14;77.17
76762;BME280;65705;51.032;13.790;2023-04-15T08:58:58;99280.75;;;10.12;77.99
76762;BME280;65705;51.032;13.790;2023-04-15T09:01:26;99279.66;;;9.99;77.94
76762;BME280;65705;51.032;13.790;2023-04-15T09:03:53;99282.59;;;10.04;77.87
76762;BME280;65705;51.032;13.790;2023-04-15T09:06:20;99290.59;;;10.02;77.51
76762;BME280;65705;51.032;13.790;2023-04-15T09:08:48;99294.22;;;10.01;77.70
76762;BME280;65705;51.032;13.790;2023-04-15T09:11:16;99298.94;;;10.06;77.18
76762;BME280;65705;51.032;13.790;2023-04-15T09:13:44;99300.94;;;10.04;77.32
76762;BME280;65705;51.032;13.790;2023-04-15T09:16:12;99297.44;;;10.11;76.44
76762;BME280;65705;51.032;13.790;2023-04-15T09:18:39;99303.94;;;10.23;75.99
76762;BME280;65705;51.032;13.790;2023-04-15T09:21:08;99308.13;;;10.32;75.06
76762;BME280;65705;51.032;13.790;2023-04-15T09:23:38;99304.72;;;10.24;75.02
76762;BME280;65705;51.032;13.790;2023-04-15T09:26:06;99307.81;;;10.27;74.88
76762;BME280;65705;51.032;13.790;2023-04-15T09:28:40;99306.56;;;10.23;73.83
76762;BME280;65705;51.032;13.790;2023-04-15T09:31:08;99305.72;;;10.23;73.62
76762;BME280;65705;51.032;13.790;2023-04-15T09:33:53;99312.53;;;10.32;73.11
76762;BME280;65705;51.032;13.790;2023-04-15T09:36:21;99311.53;;;10.33;73.25
76762;BME280;65705;51.032;13.790;2023-04-15T09:38:55;99320.88;;;10.35;72.70
76762;BME280;65705;51.032;13.790;2023-04-15T09:41:24;99327.28;;;10.33;72.91
76762;BME280;65705;51.032;13.790;2023-04-15T09:43:51;99335.78;;;10.35;72.64
76762;BME280;65705;51.032;13.790;2023-04-15T09:46:18;99336.50;;;10.29;72.83
76762;BME280;65705;51.032;13.790;2023-04-15T09:48:46;99331.41;;;10.27;72.27
76762;BME280;65705;51.032;13.790;2023-04-15T09:51:13;99341.25;;;10.25;72.77
76762;BME280;65705;51.032;13.790;2023-04-15T09:53:39;99340.84;;;10.36;72.51
76762;BME280;65705;51.032;13.790;2023-04-15T09:56:07;99341.97;;;10.42;72.56
76762;BME280;65705;51.032;13.790;2023-04-15T09:58:34;99343.59;;;10.43;72.13
76762;BME280;65705;51.032;13.790;2023-04-15T10:01:04;99343.88;;;10.48;72.09
76762;BME280;65705;51.032;13.790;2023-04-15T10:03:34;99343.94;;;10.40;72.43
76762;BME280;65705;51.032;13.790;2023-04-15T10:06:02;99358.06;;;10.39;72.89
76762;BME280;65705;51.032;13.790;2023-04-15T10:08:33;99357.41;;;10.37;72.78
76762;BME280;65705;51.032;13.790;2023-04-15T10:11:03;99359.81;;;10.24;72.77
76762;BME280;65705;51.032;13.790;2023-04-15T10:13:32;99364.81;;;10.33;71.12
76762;BME280;65705;51.032;13.790;2023-04-15T10:16:09;99367.19;;;10.20;71.59
76762;BME280;65705;51.032;13.790;2023-04-15T10:18:41;99363.13;;;10.18;71.54
76762;BME280;65705;51.032;13.790;2023-04-15T10:21:08;99358.19;;;10.23;71.70
76762;BME280;65705;51.032;13.790;2023-04-15T10:23:36;99362.25;;;10.25;71.86
76762;BME280;65705;51.032;13.790;2023-04-15T10:26:05;99368.44;;;10.32;71.04
76762;BME280;65705;51.032;13.790;2023-04-15T10:28:33;99366.63;;;10.33;71.23
76762;BME280;65705;51.032;13.790;2023-04-15T10:31:00;99370.06;;;10.33;70.32
76762;BME280;65705;51.032;13.790;2023-04-15T10:33:28;99374.44;;;10.41;69.82
76762;BME280;65705;51.032;13.790;2023-04-15T10:35:56;99375.59;;;10.38;70.43
76762;BME280;65705;51.032;13.790;2023-04-15T10:41:16;99373.34;;;10.35;70.50
76762;BME280;65705;51.032;13.790;2023-04-15T10:46:24;99369.88;;;10.57;71.48
76762;BME280;65705;51.032;13.790;2023-04-15T10:49:12;99371.63;;;10.80;70.11
76762;BME280;65705;51.032;13.790;2023-04-15T10:51:44;99376.19;;;10.86;69.49
76762;BME280;65705;51.032;13.790;2023-04-15T10:54:36;99366.06;;;10.97;69.53
76762;BME280;65705;51.032;13.790;2023-04-15T10:59:35;99377.84;;;11.16;68.62
76762;BME280;65705;51.032;13.790;2023-04-15T11:02:05;99381.47;;;11.29;68.59
76762;BME280;65705;51.032;13.790;2023-04-15T11:04:52;99389.34;;;11.29;68.50
76762;BME280;65705;51.032;13.790;2023-04-15T11:12:40;99397.41;;;11.28;68.50
76762;BME280;65705;51.032;13.790;2023-04-15T11:17:53;99404.38;;;11.21;68.26
76762;BME280;65705;51.032;13.790;2023-04-15T11:20:20;99405.22;;;11.21;68.30
76762;BME280;65705;51.032;13.790;2023-04-15T11:22:51;99406.38;;;11.19;68.16
76762;BME280;65705;51.032;13.790;2023-04-15T11:25:26;99417.63;;;11.27;67.65
76762;BME280;65705;51.032;13.790;2023-04-15T11:27:54;99413.16;;;11.28;67.12
76762;BME280;65705;51.032;13.790;2023-04-15T11:30:23;99420.78;;;11.23;66.83
76762;BME280;65705;51.032;13.790;2023-04-15T11:32:51;99427.69;;;11.24;66.23
76762;BME280;65705;51.032;13.790;2023-04-15T11:35:19;99424.66;;;11.12;66.88
76762;BME280;65705;51.032;13.790;2023-04-15T11:37:47;99421.41;;;11.10;67.45
76762;BME280;65705;51.032;13.790;2023-04-15T11:40:16;99419.41;;;11.12;66.75
76762;BME280;65705;51.032;13.790;2023-04-15T11:42:43;99421.94;;;11.20;66.21
76762;BME280;65705;51.032;13.790;2023-04-15T11:45:12;99428.47;;;11.24;66.34
76762;BME280;65705;51.032;13.790;2023-04-15T11:47:41;99431.56;;;11.28;66.54
76762;BME280;65705;51.032;13.790;2023-04-15T11:52:58;99436.47;;;11.45;65.18
76762;BME280;65705;51.032;13.790;2023-04-15T11:55:24;99439.56;;;11.34;65.19
76762;BME280;65705;51.032;13.790;2023-04-15T11:58:09;99443.34;;;11.32;66.34
76762;BME280;65705;51.032;13.790;2023-04-15T12:00:36;99443.81;;;11.35;65.70
76762;BME280;65705;51.032;13.790;2023-04-15T12:09:08;99445.72;;;11.27;65.07
76762;BME280;65705;51.032;13.790;2023-04-15T12:11:45;99453.13;;;11.23;65.34
76762;BME280;65705;51.032;13.790;2023-04-15T12:14:19;99452.75;;;11.26;65.44
76762;BME280;65705;51.032;13.790;2023-04-15T12:16:53;99456.03;;;11.28;65.18
76762;BME280;65705;51.032;13.790;2023-04-15T12:19:25;99459.22;;;11.24;65.11
76762;BME280;65705;51.032;13.790;2023-04-15T12:21:56;99457.66;;;11.29;65.84
76762;BME280;65705;51.032;13.790;2023-04-15T12:24:23;99463.28;;;11.41;65.28
76762;BME280;65705;51.032;13.790;2023-04-15T12:26:51;99467.56;;;11.56;64.97
76762;BME280;65705;51.032;13.790;2023-04-15T12:29:26;99469.78;;;11.68;65.08
76762;BME280;65705;51.032;13.790;2023-04-15T12:31:57;99471.75;;;11.65;64.42
76762;BME280;65705;51.032;13.790;2023-04-15T12:36:53;99472.78;;;11.64;63.86
76762;BME280;65705;51.032;13.790;2023-04-15T12:39:28;99486.06;;;11.63;64.04
76762;BME280;65705;51.032;13.790;2023-04-15T12:41:54;99486.50;;;11.52;64.46
76762;BME280;65705;51.032;13.790;2023-04-15T12:44:22;99491.56;;;11.53;64.87
76762;BME280;65705;51.032;13.790;2023-04-15T12:46:49;99488.94;;;11.53;65.42
76762;BME280;65705;51.032;13.790;2023-04-15T12:49:15;99489.19;;;11.67;65.93
76762;BME280;65705;51.032;13.790;2023-04-15T12:51:44;99492.16;;;11.78;64.36
76762;BME280;65705;51.032;13.790;2023-04-15T12:54:10;99499.50;;;11.83;64.11
76762;BME280;65705;51.032;13.790;2023-04-15T12:56:35;99504.03;;;11.89;63.68
76762;BME280;65705;51.032;13.790;2023-04-15T12:59:01;99503.38;;;11.87;63.90
76762;BME280;65705;51.032;13.790;2023-04-15T13:01:27;99504.22;;;11.87;63.08
76762;BME280;65705;51.032;13.790;2023-04-15T13:03:53;99509.84;;;11.84;63.19
76762;BME280;65705;51.032;13.790;2023-04-15T13:06:18;99517.81;;;11.91;63.47
76762;BME280;65705;51.032;13.790;2023-04-15T13:08:44;99518.25;;;11.94;63.40
76762;BME280;65705;51.032;13.790;2023-04-15T13:11:10;99517.09;;;11.97;64.05
76762;BME280;65705;51.032;13.790;2023-04-15T13:13:36;99516.84;;;11.92;63.75
76762;BME280;65705;51.032;13.790;2023-04-15T13:16:02;99515.09;;;11.99;63.39
76762;BME280;65705;51.032;13.790;2023-04-15T13:18:28;99520.50;;;12.12;63.35
76762;BME280;65705;51.032;13.790;2023-04-15T13:20:55;99523.88;;;12.20;63.72
76762;BME280;65705;51.032;13.790;2023-04-15T13:23:21;99527.44;;;12.13;62.95
76762;BME280;65705;51.032;13.790;2023-04-15T13:25:47;99520.88;;;12.09;63.12